Henri — WDF2420 — position and weather

sailwx.info

Track history (hours):
 
Tides and Currents Weather Stations Pressure Air Temp Water Temp Dewpoint Dewpoint Depression Visibility Wind Speed Wind Dir Waves Ship Positions

Henri

Owner: Enterprise Marine Services, LLC, San Antonio, TX. More information available from US FCC via Universal Licensing System and Coast Guard Vessel Documentation Center.

Last reported at 2018-Jun-16 06:36 UTC. Time now 2018-Jun-21 16:23 UTC.
Position N 29°33' W 090°28'.

Length 26 m; draft 3 m.

Type: Tug. MMSI: 367003390.

Date/timePositionNaut miles runAvg speedWind from/ knotsBaromVisibWave heightAir tempDewpointWater temp
2018-Jun-16 06:36N 29°33' W 090°28'1 4.9
2018-Jun-16 06:27N 29°34' W 090°29'2 4.8
2018-Jun-16 06:00N 29°34' W 090°32'2 4.6
2018-Jun-16 05:30N 29°34' W 090°34'2 4.4
2018-Jun-16 05:00N 29°35' W 090°37'2 3.5
2018-Jun-16 04:30N 29°35' W 090°38'2 4.7
2018-Jun-16 04:00N 29°36' W 090°41'1 1.9
2018-Jun-16 03:30N 29°37' W 090°42'0 0.0
2018-Jun-16 02:57N 29°37' W 090°42'0 0.0
2018-Jun-16 02:29N 29°37' W 090°42'0 0.0
2018-Jun-16 02:00N 29°37' W 090°42'0 0.0
2018-Jun-16 01:30N 29°37' W 090°42'0 0.0
2018-Jun-16 01:00N 29°37' W 090°42'0 0.0
2018-Jun-16 00:30N 29°37' W 090°42'0 0.0
2018-Jun-16 00:00N 29°37' W 090°42'0 0.0
2018-Jun-15 23:30N 29°37' W 090°42'0 0.0
2018-Jun-15 23:00N 29°37' W 090°42'0 0.0
2018-Jun-15 22:30N 29°37' W 090°42'0 0.0
2018-Jun-15 22:00N 29°37' W 090°42'0 0.0
2018-Jun-15 21:30N 29°37' W 090°42'0 0.0
2018-Jun-15 21:00N 29°37' W 090°42'0 0.0
2018-Jun-15 20:30N 29°37' W 090°42'0 0.0
2018-Jun-15 19:56N 29°37' W 090°42'0 0.0
2018-Jun-15 19:30N 29°37' W 090°42'0 0.0
2018-Jun-15 19:00N 29°37' W 090°42'0 0.0
2018-Jun-15 18:30N 29°37' W 090°42'0 0.0
2018-Jun-15 18:00N 29°37' W 090°42'0 0.0
2018-Jun-15 17:30N 29°37' W 090°42'0 0.0
2018-Jun-15 17:00N 29°37' W 090°42'0 0.0
2018-Jun-15 16:30N 29°37' W 090°42'0 0.0
2018-Jun-15 16:00N 29°37' W 090°42'0 0.0
2018-Jun-15 15:30N 29°37' W 090°42'0 0.0
2018-Jun-15 15:00N 29°37' W 090°42'0 0.0
2018-Jun-15 14:30N 29°37' W 090°42'0 0.0
2018-Jun-15 14:00N 29°37' W 090°42'0 0.0
2018-Jun-15 13:30N 29°37' W 090°42'0 0.0
2018-Jun-15 13:00N 29°37' W 090°42'0 0.0
2018-Jun-15 12:30N 29°37' W 090°42'0 0.0
2018-Jun-15 12:00N 29°37' W 090°42'0 0.0
2018-Jun-15 11:30N 29°37' W 090°42'0 0.0
2018-Jun-15 11:00N 29°37' W 090°42'0 0.0
2018-Jun-15 10:30N 29°37' W 090°42'0 0.0
2018-Jun-15 10:00N 29°37' W 090°42'0 0.0
2018-Jun-15 09:30N 29°37' W 090°42'0 0.0
2018-Jun-15 09:00N 29°37' W 090°42'0 0.0
2018-Jun-15 08:30N 29°37' W 090°42'0 0.0
2018-Jun-15 08:00N 29°37' W 090°42'0 0.0
2018-Jun-15 07:30N 29°37' W 090°42'0 0.0
2018-Jun-15 07:00N 29°37' W 090°42'0 0.0
2018-Jun-15 06:30N 29°37' W 090°42'0 0.0
2018-Jun-15 06:00N 29°37' W 090°42'0 0.0
2018-Jun-15 05:30N 29°37' W 090°42'0 0.0
2018-Jun-15 05:00N 29°37' W 090°42'0 0.0
2018-Jun-15 04:29N 29°37' W 090°42'0 0.0
2018-Jun-15 04:00N 29°37' W 090°42'0 0.0
2018-Jun-15 03:30N 29°37' W 090°42'0 0.0
2018-Jun-15 03:00N 29°37' W 090°42'0 0.0
2018-Jun-15 02:30N 29°37' W 090°42'0 0.0
2018-Jun-15 01:59N 29°37' W 090°42'0 0.0
2018-Jun-15 01:30N 29°37' W 090°42'0 0.1
2018-Jun-15 00:50N 29°37' W 090°42'0 0.9
2018-Jun-15 00:30N 29°37' W 090°41'3 6.4
2018-Jun-15 00:00N 29°35' W 090°38'  
2018-Jun-07 20:31N 29°34' W 090°32'1 5.2
2018-Jun-07 20:24N 29°34' W 090°33'2 5.0
2018-Jun-07 19:56N 29°35' W 090°35'2 4.4
2018-Jun-07 19:30N 29°35' W 090°37'2 4.7
2018-Jun-07 19:00N 29°36' W 090°40'2 3.9
2018-Jun-07 18:30N 29°37' W 090°42'0 0.1
2018-Jun-07 18:00N 29°37' W 090°42'0 0.0
2018-Jun-07 17:30N 29°37' W 090°42'0 0.0
2018-Jun-07 16:55N 29°37' W 090°42'0 0.0
2018-Jun-07 16:30N 29°37' W 090°42'0 0.0
2018-Jun-07 16:00N 29°37' W 090°42'0 0.0
2018-Jun-07 15:30N 29°37' W 090°42'0 0.0
2018-Jun-07 15:00N 29°37' W 090°42'0 0.0
2018-Jun-07 14:30N 29°37' W 090°42'0 0.0
2018-Jun-07 13:58N 29°37' W 090°42'0 0.0
2018-Jun-07 13:30N 29°37' W 090°42'0 0.0
2018-Jun-07 12:59N 29°37' W 090°42'0 0.0
2018-Jun-07 12:30N 29°37' W 090°42'0 0.0
2018-Jun-07 12:00N 29°37' W 090°42'0 0.0
2018-Jun-07 11:30N 29°37' W 090°42'0 0.0
2018-Jun-07 11:00N 29°37' W 090°42'0 0.0
2018-Jun-07 10:28N 29°37' W 090°42'0 0.0
2018-Jun-07 09:56N 29°37' W 090°42'0 0.0
2018-Jun-07 09:30N 29°37' W 090°42'0 0.0
2018-Jun-07 09:00N 29°37' W 090°42'0 0.0
2018-Jun-07 08:28N 29°37' W 090°42'0 0.0
2018-Jun-07 08:00N 29°37' W 090°42'0 0.0
2018-Jun-07 07:30N 29°37' W 090°42'0 0.0
2018-Jun-07 07:00N 29°37' W 090°42'0 0.0
2018-Jun-07 06:30N 29°37' W 090°42'0 0.0
2018-Jun-07 06:00N 29°37' W 090°42'0 0.0
2018-Jun-07 05:30N 29°37' W 090°42'0 0.0
2018-Jun-07 05:01N 29°37' W 090°42'0 0.0
2018-Jun-07 04:30N 29°37' W 090°42'0 0.0
2018-Jun-07 03:59N 29°37' W 090°42'0 0.0
2018-Jun-07 03:30N 29°37' W 090°42'0 0.0
2018-Jun-07 03:00N 29°37' W 090°42'0 0.0
2018-Jun-07 02:28N 29°37' W 090°42'0 0.0
2018-Jun-07 01:59N 29°37' W 090°42'0 0.0
2018-Jun-07 01:30N 29°37' W 090°42'0 0.0
2018-Jun-07 01:00N 29°37' W 090°42'0 0.0
2018-Jun-07 00:30N 29°37' W 090°42'0 0.0
2018-Jun-06 23:59N 29°37' W 090°42'0 0.0
2018-Jun-06 23:30N 29°37' W 090°42'0 0.0
2018-Jun-06 23:00N 29°37' W 090°42'0 0.0
2018-Jun-06 22:30N 29°37' W 090°42'0 0.0
2018-Jun-06 22:00N 29°37' W 090°42'0 0.0
2018-Jun-06 21:30N 29°37' W 090°42'0 0.0
2018-Jun-06 20:57N 29°37' W 090°42'0 0.0
2018-Jun-06 20:29N 29°37' W 090°42'0 0.0
2018-Jun-06 19:56N 29°37' W 090°42'0 0.0
2018-Jun-06 19:30N 29°37' W 090°42'0 0.0
2018-Jun-06 18:59N 29°37' W 090°42'0 0.0
2018-Jun-06 18:29N 29°37' W 090°42'0 0.0
2018-Jun-06 18:00N 29°37' W 090°42'0 0.0
2018-Jun-06 17:28N 29°37' W 090°42'0 0.0
2018-Jun-06 17:00N 29°37' W 090°42'0 0.4
2018-Jun-06 16:30N 29°37' W 090°42'2 3.2
2018-Jun-06 16:00N 29°36' W 090°40'3 5.5
2018-Jun-06 15:30N 29°35' W 090°37'  
Track history (hours):
 
Tides and Currents Weather Stations Pressure Air Temp Water Temp Dewpoint Dewpoint Depression Visibility Wind Speed Wind Dir Waves Ship Positions

Henri

Owner: Enterprise Marine Services, LLC, San Antonio, TX. More information available from US FCC via Universal Licensing System and Coast Guard Vessel Documentation Center.

Last reported at 2018-Jun-16 06:36 UTC. Time now 2018-Jun-21 16:23 UTC.
Position N 29°33' W 090°28'.

Length 26 m; draft 3 m.

Type: Tug. MMSI: 367003390.

Date/timePositionNaut miles runAvg speedWind from/ knotsBaromVisibWave heightAir tempDewpointWater temp
2018-Jun-16 06:36N 29°33' W 090°28'1 4.9
2018-Jun-16 06:27N 29°34' W 090°29'2 4.8
2018-Jun-16 06:00N 29°34' W 090°32'2 4.6
2018-Jun-16 05:30N 29°34' W 090°34'2 4.4
2018-Jun-16 05:00N 29°35' W 090°37'2 3.5
2018-Jun-16 04:30N 29°35' W 090°38'2 4.7
2018-Jun-16 04:00N 29°36' W 090°41'1 1.9
2018-Jun-16 03:30N 29°37' W 090°42'0 0.0
2018-Jun-16 02:57N 29°37' W 090°42'0 0.0
2018-Jun-16 02:29N 29°37' W 090°42'0 0.0
2018-Jun-16 02:00N 29°37' W 090°42'0 0.0
2018-Jun-16 01:30N 29°37' W 090°42'0 0.0
2018-Jun-16 01:00N 29°37' W 090°42'0 0.0
2018-Jun-16 00:30N 29°37' W 090°42'0 0.0
2018-Jun-16 00:00N 29°37' W 090°42'0 0.0
2018-Jun-15 23:30N 29°37' W 090°42'0 0.0
2018-Jun-15 23:00N 29°37' W 090°42'0 0.0
2018-Jun-15 22:30N 29°37' W 090°42'0 0.0
2018-Jun-15 22:00N 29°37' W 090°42'0 0.0
2018-Jun-15 21:30N 29°37' W 090°42'0 0.0
2018-Jun-15 21:00N 29°37' W 090°42'0 0.0
2018-Jun-15 20:30N 29°37' W 090°42'0 0.0
2018-Jun-15 19:56N 29°37' W 090°42'0 0.0
2018-Jun-15 19:30N 29°37' W 090°42'0 0.0
2018-Jun-15 19:00N 29°37' W 090°42'0 0.0
2018-Jun-15 18:30N 29°37' W 090°42'0 0.0
2018-Jun-15 18:00N 29°37' W 090°42'0 0.0
2018-Jun-15 17:30N 29°37' W 090°42'0 0.0
2018-Jun-15 17:00N 29°37' W 090°42'0 0.0
2018-Jun-15 16:30N 29°37' W 090°42'0 0.0
2018-Jun-15 16:00N 29°37' W 090°42'0 0.0
2018-Jun-15 15:30N 29°37' W 090°42'0 0.0
2018-Jun-15 15:00N 29°37' W 090°42'0 0.0
2018-Jun-15 14:30N 29°37' W 090°42'0 0.0
2018-Jun-15 14:00N 29°37' W 090°42'0 0.0
2018-Jun-15 13:30N 29°37' W 090°42'0 0.0
2018-Jun-15 13:00N 29°37' W 090°42'0 0.0
2018-Jun-15 12:30N 29°37' W 090°42'0 0.0
2018-Jun-15 12:00N 29°37' W 090°42'0 0.0
2018-Jun-15 11:30N 29°37' W 090°42'0 0.0
2018-Jun-15 11:00N 29°37' W 090°42'0 0.0
2018-Jun-15 10:30N 29°37' W 090°42'0 0.0
2018-Jun-15 10:00N 29°37' W 090°42'0 0.0
2018-Jun-15 09:30N 29°37' W 090°42'0 0.0
2018-Jun-15 09:00N 29°37' W 090°42'0 0.0
2018-Jun-15 08:30N 29°37' W 090°42'0 0.0
2018-Jun-15 08:00N 29°37' W 090°42'0 0.0
2018-Jun-15 07:30N 29°37' W 090°42'0 0.0
2018-Jun-15 07:00N 29°37' W 090°42'0 0.0
2018-Jun-15 06:30N 29°37' W 090°42'0 0.0
2018-Jun-15 06:00N 29°37' W 090°42'0 0.0
2018-Jun-15 05:30N 29°37' W 090°42'0 0.0
2018-Jun-15 05:00N 29°37' W 090°42'0 0.0
2018-Jun-15 04:29N 29°37' W 090°42'0 0.0
2018-Jun-15 04:00N 29°37' W 090°42'0 0.0
2018-Jun-15 03:30N 29°37' W 090°42'0 0.0
2018-Jun-15 03:00N 29°37' W 090°42'0 0.0
2018-Jun-15 02:30N 29°37' W 090°42'0 0.0
2018-Jun-15 01:59N 29°37' W 090°42'0 0.0
2018-Jun-15 01:30N 29°37' W 090°42'0 0.1
2018-Jun-15 00:50N 29°37' W 090°42'0 0.9
2018-Jun-15 00:30N 29°37' W 090°41'3 6.4
2018-Jun-15 00:00N 29°35' W 090°38'  
2018-Jun-07 20:31N 29°34' W 090°32'1 5.2
2018-Jun-07 20:24N 29°34' W 090°33'2 5.0
2018-Jun-07 19:56N 29°35' W 090°35'2 4.4
2018-Jun-07 19:30N 29°35' W 090°37'2 4.7
2018-Jun-07 19:00N 29°36' W 090°40'2 3.9
2018-Jun-07 18:30N 29°37' W 090°42'0 0.1
2018-Jun-07 18:00N 29°37' W 090°42'0 0.0
2018-Jun-07 17:30N 29°37' W 090°42'0 0.0
2018-Jun-07 16:55N 29°37' W 090°42'0 0.0
2018-Jun-07 16:30N 29°37' W 090°42'0 0.0
2018-Jun-07 16:00N 29°37' W 090°42'0 0.0
2018-Jun-07 15:30N 29°37' W 090°42'0 0.0
2018-Jun-07 15:00N 29°37' W 090°42'0 0.0
2018-Jun-07 14:30N 29°37' W 090°42'0 0.0
2018-Jun-07 13:58N 29°37' W 090°42'0 0.0
2018-Jun-07 13:30N 29°37' W 090°42'0 0.0
2018-Jun-07 12:59N 29°37' W 090°42'0 0.0
2018-Jun-07 12:30N 29°37' W 090°42'0 0.0
2018-Jun-07 12:00N 29°37' W 090°42'0 0.0
2018-Jun-07 11:30N 29°37' W 090°42'0 0.0
2018-Jun-07 11:00N 29°37' W 090°42'0 0.0
2018-Jun-07 10:28N 29°37' W 090°42'0 0.0
2018-Jun-07 09:56N 29°37' W 090°42'0 0.0
2018-Jun-07 09:30N 29°37' W 090°42'0 0.0
2018-Jun-07 09:00N 29°37' W 090°42'0 0.0
2018-Jun-07 08:28N 29°37' W 090°42'0 0.0
2018-Jun-07 08:00N 29°37' W 090°42'0 0.0
2018-Jun-07 07:30N 29°37' W 090°42'0 0.0
2018-Jun-07 07:00N 29°37' W 090°42'0 0.0
2018-Jun-07 06:30N 29°37' W 090°42'0 0.0
2018-Jun-07 06:00N 29°37' W 090°42'0 0.0
2018-Jun-07 05:30N 29°37' W 090°42'0 0.0
2018-Jun-07 05:01N 29°37' W 090°42'0 0.0
2018-Jun-07 04:30N 29°37' W 090°42'0 0.0
2018-Jun-07 03:59N 29°37' W 090°42'0 0.0
2018-Jun-07 03:30N 29°37' W 090°42'0 0.0
2018-Jun-07 03:00N 29°37' W 090°42'0 0.0
2018-Jun-07 02:28N 29°37' W 090°42'0 0.0
2018-Jun-07 01:59N 29°37' W 090°42'0 0.0
2018-Jun-07 01:30N 29°37' W 090°42'0 0.0
2018-Jun-07 01:00N 29°37' W 090°42'0 0.0
2018-Jun-07 00:30N 29°37' W 090°42'0 0.0
2018-Jun-06 23:59N 29°37' W 090°42'0 0.0
2018-Jun-06 23:30N 29°37' W 090°42'0 0.0
2018-Jun-06 23:00N 29°37' W 090°42'0 0.0
2018-Jun-06 22:30N 29°37' W 090°42'0 0.0
2018-Jun-06 22:00N 29°37' W 090°42'0 0.0
2018-Jun-06 21:30N 29°37' W 090°42'0 0.0
2018-Jun-06 20:57N 29°37' W 090°42'0 0.0
2018-Jun-06 20:29N 29°37' W 090°42'0 0.0
2018-Jun-06 19:56N 29°37' W 090°42'0 0.0
2018-Jun-06 19:30N 29°37' W 090°42'0 0.0
2018-Jun-06 18:59N 29°37' W 090°42'0 0.0
2018-Jun-06 18:29N 29°37' W 090°42'0 0.0
2018-Jun-06 18:00N 29°37' W 090°42'0 0.0
2018-Jun-06 17:28N 29°37' W 090°42'0 0.0
2018-Jun-06 17:00N 29°37' W 090°42'0 0.4
2018-Jun-06 16:30N 29°37' W 090°42'2 3.2
2018-Jun-06 16:00N 29°36' W 090°40'3 5.5
2018-Jun-06 15:30N 29°35' W 090°37'  

Dump ship's entire track history